sensor_id;sensor_type;location;lat;lon;timestamp;temperature;humidity
3017;DHT22;1518;52.408;13.060;2022-11-23T00:02:41;13.30;82.20
3017;DHT22;1518;52.408;13.060;2022-11-23T00:05:30;13.40;82.70
3017;DHT22;1518;52.408;13.060;2022-11-23T00:08:18;13.50;82.60
3017;DHT22;1518;52.408;13.060;2022-11-23T00:11:06;13.70;82.30
3017;DHT22;1518;52.408;13.060;2022-11-23T00:13:54;13.70;82.20
3017;DHT22;1518;52.408;13.060;2022-11-23T00:16:44;13.90;81.90
3017;DHT22;1518;52.408;13.060;2022-11-23T00:19:32;14.00;81.70
3017;DHT22;1518;52.408;13.060;2022-11-23T00:22:20;14.00;81.40
3017;DHT22;1518;52.408;13.060;2022-11-23T00:25:08;14.10;81.20
3017;DHT22;1518;52.408;13.060;2022-11-23T00:27:56;14.20;81.10
3017;DHT22;1518;52.408;13.060;2022-11-23T00:30:47;14.30;81.10
3017;DHT22;1518;52.408;13.060;2022-11-23T00:33:37;14.30;80.90
3017;DHT22;1518;52.408;13.060;2022-11-23T00:36:26;14.30;80.70
3017;DHT22;1518;52.408;13.060;2022-11-23T00:39:14;14.30;80.40
3017;DHT22;1518;52.408;13.060;2022-11-23T00:42:02;14.20;80.30
3017;DHT22;1518;52.408;13.060;2022-11-23T00:44:50;14.20;80.20
3017;DHT22;1518;52.408;13.060;2022-11-23T00:47:38;14.20;80.50
3017;DHT22;1518;52.408;13.060;2022-11-23T00:50:28;14.10;80.50
3017;DHT22;1518;52.408;13.060;2022-11-23T00:53:16;14.30;80.70
3017;DHT22;1518;52.408;13.060;2022-11-23T00:56:04;14.00;80.40
3017;DHT22;1518;52.408;13.060;2022-11-23T00:58:54;14.00;80.50
3017;DHT22;1518;52.408;13.060;2022-11-23T01:01:42;14.00;80.70
3017;DHT22;1518;52.408;13.060;2022-11-23T01:04:30;13.80;80.60
3017;DHT22;1518;52.408;13.060;2022-11-23T01:07:20;13.80;80.80
3017;DHT22;1518;52.408;13.060;2022-11-23T01:10:08;13.70;81.00
3017;DHT22;1518;52.408;13.060;2022-11-23T01:12:56;13.60;81.00
3017;DHT22;1518;52.408;13.060;2022-11-23T01:15:48;13.60;81.10
3017;DHT22;1518;52.408;13.060;2022-11-23T01:18:36;13.60;81.20
3017;DHT22;1518;52.408;13.060;2022-11-23T01:21:26;13.50;81.40
3017;DHT22;1518;52.408;13.060;2022-11-23T01:24:17;13.40;81.40
3017;DHT22;1518;52.408;13.060;2022-11-23T01:27:06;13.40;81.40
3017;DHT22;1518;52.408;13.060;2022-11-23T01:29:54;13.40;81.60
3017;DHT22;1518;52.408;13.060;2022-11-23T01:32:42;13.40;81.80
3017;DHT22;1518;52.408;13.060;2022-11-23T01:35:30;13.40;81.80
3017;DHT22;1518;52.408;13.060;2022-11-23T01:38:18;13.40;81.80
3017;DHT22;1518;52.408;13.060;2022-11-23T01:41:11;13.40;82.70
3017;DHT22;1518;52.408;13.060;2022-11-23T01:43:59;13.50;82.50
3017;DHT22;1518;52.408;13.060;2022-11-23T01:46:48;13.50;82.30
3017;DHT22;1518;52.408;13.060;2022-11-23T01:49:38;13.60;82.20
3017;DHT22;1518;52.408;13.060;2022-11-23T01:52:27;13.70;82.00
3017;DHT22;1518;52.408;13.060;2022-11-23T01:55:16;13.70;81.80
3017;DHT22;1518;52.408;13.060;2022-11-23T01:58:07;13.80;81.70
3017;DHT22;1518;52.408;13.060;2022-11-23T02:00:56;13.80;81.60
3017;DHT22;1518;52.408;13.060;2022-11-23T02:03:46;13.80;81.40
3017;DHT22;1518;52.408;13.060;2022-11-23T02:06:36;13.80;81.30
3017;DHT22;1518;52.408;13.060;2022-11-23T02:09:24;13.80;81.40
3017;DHT22;1518;52.408;13.060;2022-11-23T02:12:13;13.70;81.30
3017;DHT22;1518;52.408;13.060;2022-11-23T02:15:03;13.70;81.30
3017;DHT22;1518;52.408;13.060;2022-11-23T02:17:52;13.70;81.40
3017;DHT22;1518;52.408;13.060;2022-11-23T02:20:40;13.60;81.40
3017;DHT22;1518;52.408;13.060;2022-11-23T02:23:33;13.60;81.30
3017;DHT22;1518;52.408;13.060;2022-11-23T02:26:26;13.60;81.50
3017;DHT22;1518;52.408;13.060;2022-11-23T02:29:17;13.60;81.40
3017;DHT22;1518;52.408;13.060;2022-11-23T02:32:07;13.50;81.40
3017;DHT22;1518;52.408;13.060;2022-11-23T02:34:55;13.50;81.80
3017;DHT22;1518;52.408;13.060;2022-11-23T02:37:43;13.40;81.60
3017;DHT22;1518;52.408;13.060;2022-11-23T02:40:34;13.40;81.80
3017;DHT22;1518;52.408;13.060;2022-11-23T02:43:24;13.40;81.90
3017;DHT22;1518;52.408;13.060;2022-11-23T02:46:12;13.40;81.80
3017;DHT22;1518;52.408;13.060;2022-11-23T02:49:00;13.40;81.80
3017;DHT22;1518;52.408;13.060;2022-11-23T02:51:48;13.40;82.20
3017;DHT22;1518;52.408;13.060;2022-11-23T02:54:36;13.40;82.00
3017;DHT22;1518;52.408;13.060;2022-11-23T02:57:24;13.40;82.20
3017;DHT22;1518;52.408;13.060;2022-11-23T03:00:14;13.40;82.30
3017;DHT22;1518;52.408;13.060;2022-11-23T03:03:03;13.40;82.50
3017;DHT22;1518;52.408;13.060;2022-11-23T03:05:51;13.50;82.40
3017;DHT22;1518;52.408;13.060;2022-11-23T03:08:39;13.60;82.30
3017;DHT22;1518;52.408;13.060;2022-11-23T03:11:27;13.60;82.20
3017;DHT22;1518;52.408;13.060;2022-11-23T03:14:15;13.60;82.10
3017;DHT22;1518;52.408;13.060;2022-11-23T03:17:05;13.60;81.70
3017;DHT22;1518;52.408;13.060;2022-11-23T03:19:53;13.60;81.70
3017;DHT22;1518;52.408;13.060;2022-11-23T03:22:41;13.60;81.70
3017;DHT22;1518;52.408;13.060;2022-11-23T03:25:29;13.60;81.50
3017;DHT22;1518;52.408;13.060;2022-11-23T03:28:17;13.60;81.60
3017;DHT22;1518;52.408;13.060;2022-11-23T03:31:05;13.60;82.10
3017;DHT22;1518;52.408;13.060;2022-11-23T03:33:54;13.60;81.80
3017;DHT22;1518;52.408;13.060;2022-11-23T03:36:42;13.60;81.70
3017;DHT22;1518;52.408;13.060;2022-11-23T03:39:31;13.50;81.60
3017;DHT22;1518;52.408;13.060;2022-11-23T03:42:19;13.50;81.60
3017;DHT22;1518;52.408;13.060;2022-11-23T03:45:08;13.50;81.70
3017;DHT22;1518;52.408;13.060;2022-11-23T03:47:56;13.40;81.70
3017;DHT22;1518;52.408;13.060;2022-11-23T03:50:45;13.40;81.90
3017;DHT22;1518;52.408;13.060;2022-11-23T03:53:33;13.40;81.90
3017;DHT22;1518;52.408;13.060;2022-11-23T03:56:21;13.30;82.00
3017;DHT22;1518;52.408;13.060;2022-11-23T03:59:10;13.30;82.20
3017;DHT22;1518;52.408;13.060;2022-11-23T04:01:58;13.30;82.00
3017;DHT22;1518;52.408;13.060;2022-11-23T04:04:46;13.30;82.50
3017;DHT22;1518;52.408;13.060;2022-11-23T04:07:35;13.30;82.40
3017;DHT22;1518;52.408;13.060;2022-11-23T04:10:23;13.40;82.70
3017;DHT22;1518;52.408;13.060;2022-11-23T04:13:12;13.50;82.70
3017;DHT22;1518;52.408;13.060;2022-11-23T04:16:00;13.60;82.60
3017;DHT22;1518;52.408;13.060;2022-11-23T04:18:48;13.70;82.40
3017;DHT22;1518;52.408;13.060;2022-11-23T04:21:36;13.80;82.10
3017;DHT22;1518;52.408;13.060;2022-11-23T04:24:25;13.90;82.00
3017;DHT22;1518;52.408;13.060;2022-11-23T04:27:13;13.90;81.80
3017;DHT22;1518;52.408;13.060;2022-11-23T04:30:02;14.00;81.70
3017;DHT22;1518;52.408;13.060;2022-11-23T04:32:50;14.00;81.60
3017;DHT22;1518;52.408;13.060;2022-11-23T04:35:38;14.10;81.50
3017;DHT22;1518;52.408;13.060;2022-11-23T04:38:26;14.10;81.30
3017;DHT22;1518;52.408;13.060;2022-11-23T04:41:15;14.10;81.00
3017;DHT22;1518;52.408;13.060;2022-11-23T04:44:04;14.10;80.90
3017;DHT22;1518;52.408;13.060;2022-11-23T04:46:52;14.00;80.90
3017;DHT22;1518;52.408;13.060;2022-11-23T04:49:40;14.00;80.90
3017;DHT22;1518;52.408;13.060;2022-11-23T04:52:28;14.00;80.50
3017;DHT22;1518;52.408;13.060;2022-11-23T04:55:16;13.90;81.00
3017;DHT22;1518;52.408;13.060;2022-11-23T04:58:05;13.90;81.30
3017;DHT22;1518;52.408;13.060;2022-11-23T05:00:53;13.90;81.20
3017;DHT22;1518;52.408;13.060;2022-11-23T05:03:41;13.80;81.10
3017;DHT22;1518;52.408;13.060;2022-11-23T05:06:30;13.80;81.30
3017;DHT22;1518;52.408;13.060;2022-11-23T05:09:18;13.70;81.40
3017;DHT22;1518;52.408;13.060;2022-11-23T05:12:06;13.70;81.30
3017;DHT22;1518;52.408;13.060;2022-11-23T05:14:55;13.60;81.40
3017;DHT22;1518;52.408;13.060;2022-11-23T05:17:43;13.60;81.70
3017;DHT22;1518;52.408;13.060;2022-11-23T05:20:32;13.50;81.70
3017;DHT22;1518;52.408;13.060;2022-11-23T05:23:20;13.50;81.80
3017;DHT22;1518;52.408;13.060;2022-11-23T05:26:08;13.40;82.00
3017;DHT22;1518;52.408;13.060;2022-11-23T05:28:56;13.40;82.20
3017;DHT22;1518;52.408;13.060;2022-11-23T05:31:45;13.40;82.20
3017;DHT22;1518;52.408;13.060;2022-11-23T05:34:33;13.40;82.10
3017;DHT22;1518;52.408;13.060;2022-11-23T05:37:21;13.40;82.40
3017;DHT22;1518;52.408;13.060;2022-11-23T05:40:10;13.40;82.50
3017;DHT22;1518;52.408;13.060;2022-11-23T05:42:59;13.50;82.40
3017;DHT22;1518;52.408;13.060;2022-11-23T05:45:47;13.60;82.30
3017;DHT22;1518;52.408;13.060;2022-11-23T05:48:37;13.60;82.00
3017;DHT22;1518;52.408;13.060;2022-11-23T05:51:24;13.60;82.20
3017;DHT22;1518;52.408;13.060;2022-11-23T05:54:13;13.60;81.70
3017;DHT22;1518;52.408;13.060;2022-11-23T05:57:01;13.60;81.70
3017;DHT22;1518;52.408;13.060;2022-11-23T05:59:49;13.60;81.90
3017;DHT22;1518;52.408;13.060;2022-11-23T06:02:37;13.60;81.70
3017;DHT22;1518;52.408;13.060;2022-11-23T06:05:29;13.60;81.80
3017;DHT22;1518;52.408;13.060;2022-11-23T06:08:17;13.60;81.70
3017;DHT22;1518;52.408;13.060;2022-11-23T06:11:05;13.60;81.70
3017;DHT22;1518;52.408;13.060;2022-11-23T06:13:53;13.50;81.70
3017;DHT22;1518;52.408;13.060;2022-11-23T06:16:41;13.50;81.80
3017;DHT22;1518;52.408;13.060;2022-11-23T06:19:29;13.50;81.50
3017;DHT22;1518;52.408;13.060;2022-11-23T06:22:19;13.50;81.70
3017;DHT22;1518;52.408;13.060;2022-11-23T06:25:08;13.50;82.00
3017;DHT22;1518;52.408;13.060;2022-11-23T06:27:58;13.40;81.80
3017;DHT22;1518;52.408;13.060;2022-11-23T06:30:46;13.40;82.10
3017;DHT22;1518;52.408;13.060;2022-11-23T06:33:34;13.30;81.90
3017;DHT22;1518;52.408;13.060;2022-11-23T06:36:22;13.30;81.90
3017;DHT22;1518;52.408;13.060;2022-11-23T06:39:11;13.30;82.30
3017;DHT22;1518;52.408;13.060;2022-11-23T06:41:59;13.30;82.10
3017;DHT22;1518;52.408;13.060;2022-11-23T06:45:08;13.30;82.70
3017;DHT22;1518;52.408;13.060;2022-11-23T06:47:56;13.50;82.80
3017;DHT22;1518;52.408;13.060;2022-11-23T06:50:45;13.60;82.60
3017;DHT22;1518;52.408;13.060;2022-11-23T06:53:33;13.70;82.30
3017;DHT22;1518;52.408;13.060;2022-11-23T06:56:22;13.80;82.10
3017;DHT22;1518;52.408;13.060;2022-11-23T06:59:10;13.90;82.00
3017;DHT22;1518;52.408;13.060;2022-11-23T07:01:59;14.00;81.80
3017;DHT22;1518;52.408;13.060;2022-11-23T07:04:47;14.00;81.50
3017;DHT22;1518;52.408;13.060;2022-11-23T07:07:35;14.10;81.40
3017;DHT22;1518;52.408;13.060;2022-11-23T07:10:23;14.00;80.90
3017;DHT22;1518;52.408;13.060;2022-11-23T07:13:14;14.10;81.10
3017;DHT22;1518;52.408;13.060;2022-11-23T07:16:02;14.00;80.60
3017;DHT22;1518;52.408;13.060;2022-11-23T07:18:50;14.00;80.50
3017;DHT22;1518;52.408;13.060;2022-11-23T07:21:38;14.00;81.10
3017;DHT22;1518;52.408;13.060;2022-11-23T07:24:26;14.00;80.80
3017;DHT22;1518;52.408;13.060;2022-11-23T07:27:22;13.90;80.80
3017;DHT22;1518;52.408;13.060;2022-11-23T07:30:12;13.90;81.70
3017;DHT22;1518;52.408;13.060;2022-11-23T07:33:01;13.90;81.00
3017;DHT22;1518;52.408;13.060;2022-11-23T07:35:49;13.80;80.90
3017;DHT22;1518;52.408;13.060;2022-11-23T07:38:37;13.80;80.60
3017;DHT22;1518;52.408;13.060;2022-11-23T07:41:25;13.60;81.00
3017;DHT22;1518;52.408;13.060;2022-11-23T07:44:14;13.60;80.80
3017;DHT22;1518;52.408;13.060;2022-11-23T07:47:03;13.60;80.80
3017;DHT22;1518;52.408;13.060;2022-11-23T07:49:51;13.50;80.90
3017;DHT22;1518;52.408;13.060;2022-11-23T07:52:40;13.50;81.30
3017;DHT22;1518;52.408;13.060;2022-11-23T07:55:28;13.40;81.30
3017;DHT22;1518;52.408;13.060;2022-11-23T07:58:17;13.40;81.30
3017;DHT22;1518;52.408;13.060;2022-11-23T08:01:05;13.40;81.40
3017;DHT22;1518;52.408;13.060;2022-11-23T08:03:54;13.30;81.50
3017;DHT22;1518;52.408;13.060;2022-11-23T08:06:42;13.40;81.60
3017;DHT22;1518;52.408;13.060;2022-11-23T08:09:30;13.40;81.70
3017;DHT22;1518;52.408;13.060;2022-11-23T08:12:19;13.40;82.30
3017;DHT22;1518;52.408;13.060;2022-11-23T08:15:08;13.50;82.40
3017;DHT22;1518;52.408;13.060;2022-11-23T08:17:56;13.60;82.40
3017;DHT22;1518;52.408;13.060;2022-11-23T08:20:46;13.60;82.10
3017;DHT22;1518;52.408;13.060;2022-11-23T08:23:34;13.70;82.10
3017;DHT22;1518;52.408;13.060;2022-11-23T08:26:22;13.80;81.90
3017;DHT22;1518;52.408;13.060;2022-11-23T08:29:10;13.80;81.60
3017;DHT22;1518;52.408;13.060;2022-11-23T08:31:58;13.80;81.50
3017;DHT22;1518;52.408;13.060;2022-11-23T08:34:46;13.80;81.50
3017;DHT22;1518;52.408;13.060;2022-11-23T08:37:35;13.80;81.40
3017;DHT22;1518;52.408;13.060;2022-11-23T08:40:23;13.80;81.50
3017;DHT22;1518;52.408;13.060;2022-11-23T08:43:12;13.80;81.50
3017;DHT22;1518;52.408;13.060;2022-11-23T08:46:00;13.80;81.40
3017;DHT22;1518;52.408;13.060;2022-11-23T08:48:53;13.80;81.40
3017;DHT22;1518;52.408;13.060;2022-11-23T08:51:42;13.80;81.40
3017;DHT22;1518;52.408;13.060;2022-11-23T08:54:37;13.70;81.20
3017;DHT22;1518;52.408;13.060;2022-11-23T08:57:26;13.70;81.40
3017;DHT22;1518;52.408;13.060;2022-11-23T09:00:14;13.70;81.40
3017;DHT22;1518;52.408;13.060;2022-11-23T09:03:03;13.60;81.00
3017;DHT22;1518;52.408;13.060;2022-11-23T09:05:51;13.60;81.70
3017;DHT22;1518;52.408;13.060;2022-11-23T09:08:40;13.60;81.90
3017;DHT22;1518;52.408;13.060;2022-11-23T09:11:29;13.50;82.20
3017;DHT22;1518;52.408;13.060;2022-11-23T09:14:17;13.50;82.00
3017;DHT22;1518;52.408;13.060;2022-11-23T09:17:05;13.50;82.10
3017;DHT22;1518;52.408;13.060;2022-11-23T09:19:53;13.50;82.20
3017;DHT22;1518;52.408;13.060;2022-11-23T09:22:41;13.50;82.20
3017;DHT22;1518;52.408;13.060;2022-11-23T09:25:30;13.50;82.30
3017;DHT22;1518;52.408;13.060;2022-11-23T09:28:19;13.60;82.30
3017;DHT22;1518;52.408;13.060;2022-11-23T09:31:10;13.60;82.50
3017;DHT22;1518;52.408;13.060;2022-11-23T09:33:58;13.60;82.00
3017;DHT22;1518;52.408;13.060;2022-11-23T09:36:46;13.60;82.60
3017;DHT22;1518;52.408;13.060;2022-11-23T09:39:34;13.60;82.50
3017;DHT22;1518;52.408;13.060;2022-11-23T09:42:41;13.70;82.50
3017;DHT22;1518;52.408;13.060;2022-11-23T09:45:38;13.70;82.40
3017;DHT22;1518;52.408;13.060;2022-11-23T09:48:47;13.70;82.30
3017;DHT22;1518;52.408;13.060;2022-11-23T09:51:40;13.70;82.30
3017;DHT22;1518;52.408;13.060;2022-11-23T09:54:32;13.80;82.40
3017;DHT22;1518;52.408;13.060;2022-11-23T09:57:23;13.80;82.40
3017;DHT22;1518;52.408;13.060;2022-11-23T10:00:17;13.80;82.40
3017;DHT22;1518;52.408;13.060;2022-11-23T10:03:11;13.80;82.40
3017;DHT22;1518;52.408;13.060;2022-11-23T10:06:03;13.80;82.40
3017;DHT22;1518;52.408;13.060;2022-11-23T10:09:13;13.80;82.40
3017;DHT22;1518;52.408;13.060;2022-11-23T10:12:22;13.80;82.50
3017;DHT22;1518;52.408;13.060;2022-11-23T10:15:19;13.80;82.60
3017;DHT22;1518;52.408;13.060;2022-11-23T10:18:28;13.70;82.60
3017;DHT22;1518;52.408;13.060;2022-11-23T10:21:22;13.70;82.80
3017;DHT22;1518;52.408;13.060;2022-11-23T10:24:17;13.70;82.80
3017;DHT22;1518;52.408;13.060;2022-11-23T10:27:12;13.70;82.90
3017;DHT22;1518;52.408;13.060;2022-11-23T10:30:01;13.70;82.90
3017;DHT22;1518;52.408;13.060;2022-11-23T10:32:51;13.70;82.90
3017;DHT22;1518;52.408;13.060;2022-11-23T10:35:43;13.70;83.10
3017;DHT22;1518;52.408;13.060;2022-11-23T10:38:31;13.80;83.00
3017;DHT22;1518;52.408;13.060;2022-11-23T10:41:19;14.00;82.20
3017;DHT22;1518;52.408;13.060;2022-11-23T10:44:26;14.00;82.70
3017;DHT22;1518;52.408;13.060;2022-11-23T10:47:35;13.90;82.40
3017;DHT22;1518;52.408;13.060;2022-11-23T10:50:26;14.10;83.20
3017;DHT22;1518;52.408;13.060;2022-11-23T10:53:21;14.20;81.70
3017;DHT22;1518;52.408;13.060;2022-11-23T10:56:12;14.20;82.30
3017;DHT22;1518;52.408;13.060;2022-11-23T10:59:00;14.30;82.20
3017;DHT22;1518;52.408;13.060;2022-11-23T11:01:58;14.30;82.10
3017;DHT22;1518;52.408;13.060;2022-11-23T11:04:48;14.30;82.00
3017;DHT22;1518;52.408;13.060;2022-11-23T11:07:44;14.30;81.90
3017;DHT22;1518;52.408;13.060;2022-11-23T11:10:37;14.30;82.00
3017;DHT22;1518;52.408;13.060;2022-11-23T11:13:29;14.30;81.90
3017;DHT22;1518;52.408;13.060;2022-11-23T11:16:20;14.30;82.10
3017;DHT22;1518;52.408;13.060;2022-11-23T11:19:21;14.30;82.80
3017;DHT22;1518;52.408;13.060;2022-11-23T11:22:26;14.30;82.20
3017;DHT22;1518;52.408;13.060;2022-11-23T11:25:27;14.30;82.20
3017;DHT22;1518;52.408;13.060;2022-11-23T11:28:23;14.30;82.40
3017;DHT22;1518;52.408;13.060;2022-11-23T11:31:28;14.20;82.30
3017;DHT22;1518;52.408;13.060;2022-11-23T11:34:22;14.20;81.90
3017;DHT22;1518;52.408;13.060;2022-11-23T11:37:13;14.10;82.50
3017;DHT22;1518;52.408;13.060;2022-11-23T11:40:09;14.10;82.60
3017;DHT22;1518;52.408;13.060;2022-11-23T11:43:01;14.10;82.80
3017;DHT22;1518;52.408;13.060;2022-11-23T11:45:55;14.00;82.80
3017;DHT22;1518;52.408;13.060;2022-11-23T11:49:07;14.00;83.00
3017;DHT22;1518;52.408;13.060;2022-11-23T11:52:03;14.00;83.00
3017;DHT22;1518;52.408;13.060;2022-11-23T11:54:56;14.00;83.00
3017;DHT22;1518;52.408;13.060;2022-11-23T11:57:48;14.00;83.10
3017;DHT22;1518;52.408;13.060;2022-11-23T12:00:39;14.00;83.10
3017;DHT22;1518;52.408;13.060;2022-11-23T12:03:39;14.10;83.30
3017;DHT22;1518;52.408;13.060;2022-11-23T12:06:32;14.20;83.20
3017;DHT22;1518;52.408;13.060;2022-11-23T12:09:25;14.20;83.10
3017;DHT22;1518;52.408;13.060;2022-11-23T12:12:16;14.30;83.00
3017;DHT22;1518;52.408;13.060;2022-11-23T12:15:08;14.30;82.90
3017;DHT22;1518;52.408;13.060;2022-11-23T12:18:39;14.30;82.80
3017;DHT22;1518;52.408;13.060;2022-11-23T12:28:13;14.40;82.50
3017;DHT22;1518;52.408;13.060;2022-11-23T12:31:11;14.50;82.50
3017;DHT22;1518;52.408;13.060;2022-11-23T12:34:13;14.50;82.70
3017;DHT22;1518;52.408;13.060;2022-11-23T12:37:30;14.50;82.60
3017;DHT22;1518;52.408;13.060;2022-11-23T12:40:47;14.40;82.60
3017;DHT22;1518;52.408;13.060;2022-11-23T12:43:54;14.40;82.70
3017;DHT22;1518;52.408;13.060;2022-11-23T12:46:46;14.40;82.70
3017;DHT22;1518;52.408;13.060;2022-11-23T12:49:42;14.40;82.70
3017;DHT22;1518;52.408;13.060;2022-11-23T12:52:46;14.40;82.90
3017;DHT22;1518;52.408;13.060;2022-11-23T12:55:54;14.40;83.00
3017;DHT22;1518;52.408;13.060;2022-11-23T12:58:46;14.30;83.00
3017;DHT22;1518;52.408;13.060;2022-11-23T13:01:39;14.30;82.60
3017;DHT22;1518;52.408;13.060;2022-11-23T13:04:54;14.30;83.30
3017;DHT22;1518;52.408;13.060;2022-11-23T13:08:12;14.20;83.30
3017;DHT22;1518;52.408;13.060;2022-11-23T13:11:17;14.20;83.50
3017;DHT22;1518;52.408;13.060;2022-11-23T13:14:15;14.20;83.60
3017;DHT22;1518;52.408;13.060;2022-11-23T13:17:14;14.20;83.70
3017;DHT22;1518;52.408;13.060;2022-11-23T13:20:27;14.20;83.50
3017;DHT22;1518;52.408;13.060;2022-11-23T13:23:17;14.20;83.70
3017;DHT22;1518;52.408;13.060;2022-11-23T13:26:15;14.20;83.80
3017;DHT22;1518;52.408;13.060;2022-11-23T13:29:51;14.20;83.90
3017;DHT22;1518;52.408;13.060;2022-11-23T13:32:54;14.20;83.80
3017;DHT22;1518;52.408;13.060;2022-11-23T13:35:58;14.20;83.80
3017;DHT22;1518;52.408;13.060;2022-11-23T13:38:57;14.20;83.80
3017;DHT22;1518;52.408;13.060;2022-11-23T13:41:58;14.20;83.70
3017;DHT22;1518;52.408;13.060;2022-11-23T13:44:47;14.20;83.70
3017;DHT22;1518;52.408;13.060;2022-11-23T13:47:35;14.30;83.80
3017;DHT22;1518;52.408;13.060;2022-11-23T13:50:29;14.30;83.80
3017;DHT22;1518;52.408;13.060;2022-11-23T13:53:21;14.30;83.80
3017;DHT22;1518;52.408;13.060;2022-11-23T13:56:25;14.30;83.80
3017;DHT22;1518;52.408;13.060;2022-11-23T13:59:29;14.30;83.80
3017;DHT22;1518;52.408;13.060;2022-11-23T14:02:27;14.30;83.90
3017;DHT22;1518;52.408;13.060;2022-11-23T14:05:52;14.30;84.00
3017;DHT22;1518;52.408;13.060;2022-11-23T14:08:44;14.20;84.00
3017;DHT22;1518;52.408;13.060;2022-11-23T14:11:39;14.20;83.70
3017;DHT22;1518;52.408;13.060;2022-11-23T14:14:33;14.20;84.20
3017;DHT22;1518;52.408;13.060;2022-11-23T14:17:52;14.20;84.20
3017;DHT22;1518;52.408;13.060;2022-11-23T14:20:51;14.20;84.40
3017;DHT22;1518;52.408;13.060;2022-11-23T14:24:04;14.20;84.40
3017;DHT22;1518;52.408;13.060;2022-11-23T14:27:09;14.20;84.40
3017;DHT22;1518;52.408;13.060;2022-11-23T14:30:43;14.20;84.40
3017;DHT22;1518;52.408;13.060;2022-11-23T14:33:39;14.30;84.30
3017;DHT22;1518;52.408;13.060;2022-11-23T14:36:35;14.30;84.30
3017;DHT22;1518;52.408;13.060;2022-11-23T14:42:50;14.40;84.20
3017;DHT22;1518;52.408;13.060;2022-11-23T14:45:40;14.40;84.10
3017;DHT22;1518;52.408;13.060;2022-11-23T14:48:29;14.40;84.00
3017;DHT22;1518;52.408;13.060;2022-11-23T14:51:21;14.40;83.90
3017;DHT22;1518;52.408;13.060;2022-11-23T14:54:10;14.40;84.00
3017;DHT22;1518;52.408;13.060;2022-11-23T14:57:00;14.40;84.00
3017;DHT22;1518;52.408;13.060;2022-11-23T14:59:53;14.50;84.10
3017;DHT22;1518;52.408;13.060;2022-11-23T15:02:42;14.50;84.10
3017;DHT22;1518;52.408;13.060;2022-11-23T15:05:32;14.50;84.10
3017;DHT22;1518;52.408;13.060;2022-11-23T15:08:23;14.40;84.00
3017;DHT22;1518;52.408;13.060;2022-11-23T15:11:13;14.40;84.20
3017;DHT22;1518;52.408;13.060;2022-11-23T15:14:16;14.40;84.30
3017;DHT22;1518;52.408;13.060;2022-11-23T15:17:16;14.40;84.30
3017;DHT22;1518;52.408;13.060;2022-11-23T15:20:09;14.30;84.30
3017;DHT22;1518;52.408;13.060;2022-11-23T15:22:59;14.80;85.00
3017;DHT22;1518;52.408;13.060;2022-11-23T15:25:51;14.30;84.60
3017;DHT22;1518;52.408;13.060;2022-11-23T15:28:39;14.20;84.60
3017;DHT22;1518;52.408;13.060;2022-11-23T15:31:29;14.20;84.70
3017;DHT22;1518;52.408;13.060;2022-11-23T15:34:21;14.20;84.20
3017;DHT22;1518;52.408;13.060;2022-11-23T15:37:09;14.20;84.90
3017;DHT22;1518;52.408;13.060;2022-11-23T15:39:58;14.20;85.00
3017;DHT22;1518;52.408;13.060;2022-11-23T15:42:48;14.20;84.90
3017;DHT22;1518;52.408;13.060;2022-11-23T15:46:02;14.30;84.80
3017;DHT22;1518;52.408;13.060;2022-11-23T15:48:52;14.40;84.80
3017;DHT22;1518;52.408;13.060;2022-11-23T15:51:43;14.50;84.20
3017;DHT22;1518;52.408;13.060;2022-11-23T15:54:34;14.50;84.60
3017;DHT22;1518;52.408;13.060;2022-11-23T15:57:24;14.50;84.50
3017;DHT22;1518;52.408;13.060;2022-11-23T16:00:21;14.50;84.30
3017;DHT22;1518;52.408;13.060;2022-11-23T16:03:26;14.60;84.30
3017;DHT22;1518;52.408;13.060;2022-11-23T16:06:17;14.60;84.10
3017;DHT22;1518;52.408;13.060;2022-11-23T16:09:35;14.60;84.10
3017;DHT22;1518;52.408;13.060;2022-11-23T16:12:46;14.60;84.00
3017;DHT22;1518;52.408;13.060;2022-11-23T16:15:38;14.60;84.00
3017;DHT22;1518;52.408;13.060;2022-11-23T16:18:27;14.60;84.10
3017;DHT22;1518;52.408;13.060;2022-11-23T16:21:18;14.60;84.10
3017;DHT22;1518;52.408;13.060;2022-11-23T16:24:17;14.60;84.30
3017;DHT22;1518;52.408;13.060;2022-11-23T16:27:14;14.60;84.20
3017;DHT22;1518;52.408;13.060;2022-11-23T16:30:02;14.60;84.20
3017;DHT22;1518;52.408;13.060;2022-11-23T16:32:51;14.50;84.20
3017;DHT22;1518;52.408;13.060;2022-11-23T16:35:39;14.50;84.30
3017;DHT22;1518;52.408;13.060;2022-11-23T16:38:27;14.50;84.40
3017;DHT22;1518;52.408;13.060;2022-11-23T16:41:16;14.40;84.40
3017;DHT22;1518;52.408;13.060;2022-11-23T16:44:06;14.40;84.50
3017;DHT22;1518;52.408;13.060;2022-11-23T16:46:54;14.40;85.40
3017;DHT22;1518;52.408;13.060;2022-11-23T16:49:42;14.30;84.80
3017;DHT22;1518;52.408;13.060;2022-11-23T16:52:30;14.20;84.40
3017;DHT22;1518;52.408;13.060;2022-11-23T16:55:18;14.20;85.00
3017;DHT22;1518;52.408;13.060;2022-11-23T16:58:09;14.20;85.20
3017;DHT22;1518;52.408;13.060;2022-11-23T17:01:02;14.20;85.20
3017;DHT22;1518;52.408;13.060;2022-11-23T17:03:51;14.20;85.30
3017;DHT22;1518;52.408;13.060;2022-11-23T17:06:39;14.20;85.30
3017;DHT22;1518;52.408;13.060;2022-11-23T17:09:28;14.20;85.30
3017;DHT22;1518;52.408;13.060;2022-11-23T17:12:18;14.20;85.30
3017;DHT22;1518;52.408;13.060;2022-11-23T17:15:09;14.20;85.20
3017;DHT22;1518;52.408;13.060;2022-11-23T17:17:59;14.30;85.20
3017;DHT22;1518;52.408;13.060;2022-11-23T17:20:47;14.30;85.80
3017;DHT22;1518;52.408;13.060;2022-11-23T17:23:36;14.30;85.00
3017;DHT22;1518;52.408;13.060;2022-11-23T17:26:32;14.30;85.00
3017;DHT22;1518;52.408;13.060;2022-11-23T17:29:21;14.30;84.90
3017;DHT22;1518;52.408;13.060;2022-11-23T17:32:10;14.30;85.00
3017;DHT22;1518;52.408;13.060;2022-11-23T17:35:00;14.30;84.90
3017;DHT22;1518;52.408;13.060;2022-11-23T17:37:48;14.30;84.90
3017;DHT22;1518;52.408;13.060;2022-11-23T17:40:36;14.30;84.90
3017;DHT22;1518;52.408;13.060;2022-11-23T17:43:24;14.30;85.00
3017;DHT22;1518;52.408;13.060;2022-11-23T17:46:16;14.30;85.00
3017;DHT22;1518;52.408;13.060;2022-11-23T17:49:09;14.30;85.00
3017;DHT22;1518;52.408;13.060;2022-11-23T17:51:59;14.20;89.20
3017;DHT22;1518;52.408;13.060;2022-11-23T17:54:47;14.20;85.00
3017;DHT22;1518;52.408;13.060;2022-11-23T17:57:36;14.20;85.10
3017;DHT22;1518;52.408;13.060;2022-11-23T18:00:24;14.10;85.10
3017;DHT22;1518;52.408;13.060;2022-11-23T18:03:12;14.10;85.10
3017;DHT22;1518;52.408;13.060;2022-11-23T18:06:00;14.10;85.20
3017;DHT22;1518;52.408;13.060;2022-11-23T18:08:51;14.00;85.20
3017;DHT22;1518;52.408;13.060;2022-11-23T18:11:39;14.00;85.30
3017;DHT22;1518;52.408;13.060;2022-11-23T18:14:27;14.00;85.30
3017;DHT22;1518;52.408;13.060;2022-11-23T18:17:15;14.00;85.30
3017;DHT22;1518;52.408;13.060;2022-11-23T18:20:06;14.00;85.40
3017;DHT22;1518;52.408;13.060;2022-11-23T18:22:54;14.00;85.50
3017;DHT22;1518;52.408;13.060;2022-11-23T18:25:45;14.00;85.60
3017;DHT22;1518;52.408;13.060;2022-11-23T18:28:33;14.00;85.50
3017;DHT22;1518;52.408;13.060;2022-11-23T18:31:21;14.10;85.40
3017;DHT22;1518;52.408;13.060;2022-11-23T18:34:09;14.20;85.30